createdAt,value
2018-08-03T00:00:21.635Z,26.41
2018-08-03T00:02:50.399Z,26.39
2018-08-03T00:05:19.081Z,26.38
2018-08-03T00:07:47.867Z,26.34
2018-08-03T00:10:16.570Z,26.33
2018-08-03T00:12:45.543Z,26.34
2018-08-03T00:15:14.174Z,26.35
2018-08-03T00:17:43.080Z,26.33
2018-08-03T00:20:11.922Z,26.30
2018-08-03T00:22:41.133Z,26.24
2018-08-03T00:25:09.828Z,26.21
2018-08-03T00:27:38.480Z,26.20
2018-08-03T00:30:07.679Z,26.18
2018-08-03T00:32:36.716Z,26.17
2018-08-03T00:35:05.737Z,26.14
2018-08-03T00:37:34.353Z,26.12
2018-08-03T00:40:04.273Z,26.12
2018-08-03T00:42:32.888Z,26.12
2018-08-03T00:45:01.540Z,26.11
2018-08-03T00:47:30.199Z,26.07
2018-08-03T00:49:58.912Z,26.06
2018-08-03T00:52:27.552Z,26.06
2018-08-03T00:54:56.491Z,26.05
2018-08-03T00:57:25.158Z,26.04
2018-08-03T00:59:53.814Z,26.03
2018-08-03T01:02:22.522Z,25.99
2018-08-03T01:04:51.458Z,25.99
2018-08-03T01:07:20.148Z,25.95
2018-08-03T01:09:49.257Z,25.94
2018-08-03T01:12:18.265Z,25.92
2018-08-03T01:14:47.833Z,25.90
2018-08-03T01:17:17.162Z,25.88
2018-08-03T01:19:45.938Z,25.89
2018-08-03T01:22:14.970Z,25.89
2018-08-03T01:24:43.988Z,25.89
2018-08-03T01:27:13.244Z,25.90
2018-08-03T01:29:41.916Z,25.87
2018-08-03T01:32:10.819Z,25.85
2018-08-03T01:34:39.888Z,25.84
2018-08-03T01:37:09.028Z,25.83
2018-08-03T01:39:37.732Z,25.78
2018-08-03T01:42:06.755Z,25.76
2018-08-03T01:44:35.718Z,25.75
2018-08-03T01:47:04.447Z,25.73
2018-08-03T01:49:33.418Z,25.70
2018-08-03T01:52:02.452Z,25.68
2018-08-03T01:54:31.316Z,25.70
2018-08-03T01:57:00.225Z,25.70
2018-08-03T01:59:29.380Z,25.70
2018-08-03T02:01:58.076Z,25.69
2018-08-03T02:04:26.854Z,25.69
2018-08-03T02:06:56.389Z,25.67
2018-08-03T02:09:25.089Z,25.66
2018-08-03T02:11:53.774Z,25.67
2018-08-03T02:14:22.986Z,25.69
2018-08-03T02:16:52.162Z,25.70
2018-08-03T02:19:21.098Z,25.69
2018-08-03T02:21:49.955Z,25.69
2018-08-03T02:24:19.493Z,25.70
2018-08-03T02:26:49.568Z,25.68
2018-08-03T02:29:18.251Z,25.70
2018-08-03T02:31:47.182Z,25.68
2018-08-03T02:34:16.175Z,25.68
2018-08-03T02:36:44.773Z,25.69
2018-08-03T02:39:13.473Z,25.68
2018-08-03T02:41:42.217Z,25.66
2018-08-03T02:44:11.246Z,25.65
2018-08-03T02:46:40.593Z,25.66
2018-08-03T02:49:09.533Z,25.64
2018-08-03T02:51:38.247Z,25.64
2018-08-03T02:54:07.039Z,25.63
2018-08-03T02:56:36.318Z,25.64
2018-08-03T02:59:04.973Z,25.67
2018-08-03T03:01:33.652Z,25.62
2018-08-03T03:04:02.369Z,25.58
2018-08-03T03:06:31.041Z,25.57
2018-08-03T03:08:59.802Z,25.57
2018-08-03T03:11:29.351Z,25.53
2018-08-03T03:13:58.026Z,25.52
2018-08-03T03:16:26.754Z,25.51
2018-08-03T03:18:55.734Z,25.49
2018-08-03T03:21:24.386Z,25.48
2018-08-03T03:23:53.017Z,25.46
2018-08-03T03:26:21.985Z,25.44
2018-08-03T03:28:51.333Z,25.44
2018-08-03T03:31:20.006Z,25.43
2018-08-03T03:33:48.754Z,25.44
2018-08-03T03:36:17.438Z,25.43
2018-08-03T03:38:46.164Z,25.45
2018-08-03T03:41:14.804Z,25.44
2018-08-03T03:43:43.759Z,25.42
2018-08-03T03:46:12.393Z,25.40
2018-08-03T03:48:41.310Z,25.38
2018-08-03T03:51:10.068Z,25.35
2018-08-03T03:53:39.101Z,25.33
2018-08-03T03:56:07.996Z,25.30
2018-08-03T03:58:36.648Z,25.25
2018-08-03T04:01:05.375Z,25.23
2018-08-03T04:03:34.348Z,25.22
2018-08-03T04:06:03.111Z,25.23
2018-08-03T04:08:32.084Z,25.21
2018-08-03T04:11:00.792Z,25.19
2018-08-03T04:13:29.515Z,25.17
2018-08-03T04:15:58.189Z,25.14
2018-08-03T04:18:27.069Z,25.13
2018-08-03T04:20:56.127Z,25.13
2018-08-03T04:23:24.853Z,25.11
2018-08-03T04:25:53.555Z,25.05
2018-08-03T04:28:22.543Z,25.01
2018-08-03T04:30:51.558Z,24.98
2018-08-03T04:33:20.179Z,24.96
2018-08-03T04:35:48.825Z,24.95
2018-08-03T04:38:17.854Z,24.94
2018-08-03T04:40:46.650Z,24.92
2018-08-03T04:43:15.403Z,24.93
2018-08-03T04:45:44.600Z,24.92
2018-08-03T04:48:13.352Z,24.90
2018-08-03T04:50:42.282Z,24.90
2018-08-03T04:53:11.023Z,24.90
2018-08-03T04:55:39.911Z,24.89
2018-08-03T04:58:08.671Z,24.95
2018-08-03T05:00:40.345Z,25.02
2018-08-03T05:03:09.020Z,25.09
2018-08-03T05:05:37.995Z,25.17
2018-08-03T05:08:06.791Z,25.24
2018-08-03T05:10:35.661Z,25.25
2018-08-03T05:13:04.754Z,25.24
2018-08-03T05:15:33.660Z,25.28
2018-08-03T05:18:02.654Z,25.28
2018-08-03T05:20:31.430Z,25.30
2018-08-03T05:23:00.095Z,25.31
2018-08-03T05:25:29.027Z,25.31
2018-08-03T05:27:58.056Z,25.32
2018-08-03T05:30:27.123Z,25.31
2018-08-03T05:32:55.937Z,25.31
2018-08-03T05:35:24.842Z,25.35
2018-08-03T05:37:53.886Z,25.40
2018-08-03T05:40:22.540Z,25.47
2018-08-03T05:42:51.570Z,25.54
2018-08-03T05:45:20.272Z,25.60
2018-08-03T05:47:49.142Z,25.65
2018-08-03T05:50:17.931Z,25.66
2018-08-03T05:52:46.566Z,25.66
2018-08-03T05:55:15.882Z,25.70
2018-08-03T05:57:44.563Z,25.73
2018-08-03T06:00:13.306Z,25.75
2018-08-03T06:02:41.934Z,25.76
2018-08-03T06:05:10.652Z,25.80
2018-08-03T06:07:39.797Z,25.83
2018-08-03T06:10:08.547Z,25.84
2018-08-03T06:12:37.288Z,25.86
2018-08-03T06:15:08.226Z,25.85
2018-08-03T06:17:37.177Z,25.84
2018-08-03T06:20:07.295Z,25.84
2018-08-03T06:22:36.070Z,25.87
2018-08-03T06:25:05.315Z,25.97
2018-08-03T06:27:33.988Z,26.06
2018-08-03T06:30:02.763Z,26.23
2018-08-03T06:32:31.404Z,26.40
2018-08-03T06:35:00.057Z,26.58
2018-08-03T06:37:29.091Z,26.79
2018-08-03T06:39:57.738Z,27.02
2018-08-03T06:42:26.413Z,27.15
2018-08-03T06:44:55.253Z,27.25
2018-08-03T06:47:24.034Z,27.44
2018-08-03T06:49:52.757Z,27.60
2018-08-03T06:52:21.470Z,27.74
2018-08-03T06:54:50.205Z,27.93
2018-08-03T06:57:19.108Z,28.14
2018-08-03T06:59:47.869Z,28.32
2018-08-03T07:02:16.565Z,28.49
2018-08-03T07:04:45.565Z,28.55
2018-08-03T07:07:14.273Z,28.74
2018-08-03T07:09:43.233Z,28.90
2018-08-03T07:12:12.195Z,29.04
2018-08-03T07:14:41.162Z,29.12
2018-08-03T07:17:09.823Z,29.24
2018-08-03T07:19:38.437Z,29.36
2018-08-03T07:22:07.448Z,29.43
2018-08-03T07:24:36.377Z,29.47
2018-08-03T07:27:06.188Z,29.57
2018-08-03T07:29:35.450Z,29.68
2018-08-03T07:32:04.142Z,29.54
2018-08-03T07:34:32.924Z,29.49
2018-08-03T07:37:01.995Z,29.47
2018-08-03T07:39:31.004Z,29.52
2018-08-03T07:41:59.673Z,29.51
2018-08-03T07:44:28.427Z,29.53
2018-08-03T07:46:57.178Z,29.38
2018-08-03T07:49:25.827Z,29.40
2018-08-03T07:51:54.798Z,29.34
2018-08-03T07:54:23.473Z,29.28
2018-08-03T07:56:52.079Z,29.26
2018-08-03T07:59:21.340Z,29.28
2018-08-03T08:01:50.150Z,29.26
2018-08-03T08:04:19.115Z,29.34
2018-08-03T08:06:47.731Z,29.51
2018-08-03T08:09:16.409Z,29.60
2018-08-03T08:11:45.108Z,29.79
2018-08-03T08:14:14.193Z,29.97
2018-08-03T08:16:42.958Z,30.15
2018-08-03T08:19:11.694Z,30.26
2018-08-03T08:21:40.345Z,30.51
2018-08-03T08:24:09.132Z,30.55
2018-08-03T08:26:37.789Z,30.73
2018-08-03T08:29:06.720Z,31.01
2018-08-03T08:31:35.440Z,31.32
2018-08-03T08:34:04.125Z,31.71
2018-08-03T08:36:32.866Z,32.19
2018-08-03T08:39:01.505Z,32.65
2018-08-03T08:41:30.623Z,33.02
2018-08-03T08:43:59.697Z,33.34
2018-08-03T08:46:28.370Z,33.56
2018-08-03T08:48:57.134Z,33.77
2018-08-03T08:51:25.913Z,34.03
2018-08-03T08:53:54.561Z,34.17
2018-08-03T08:56:23.509Z,34.17
2018-08-03T08:58:52.290Z,34.33
2018-08-03T09:01:20.956Z,34.45
2018-08-03T09:03:50.023Z,34.62
2018-08-03T09:06:18.963Z,34.58
2018-08-03T09:08:47.663Z,34.46
2018-08-03T09:11:16.662Z,34.31
2018-08-03T09:13:45.313Z,34.39
2018-08-03T09:16:13.957Z,34.51
2018-08-03T09:18:42.912Z,34.62
2018-08-03T09:21:11.717Z,34.81
2018-08-03T09:23:40.402Z,35.12
2018-08-03T09:26:09.127Z,35.32
2018-08-03T09:28:38.104Z,35.25
2018-08-03T09:31:06.799Z,35.15
2018-08-03T09:33:35.471Z,35.06
2018-08-03T09:36:04.305Z,35.02
2018-08-03T09:38:33.365Z,35.04
2018-08-03T09:41:02.033Z,34.96
2018-08-03T09:43:30.934Z,34.63
2018-08-03T09:45:59.611Z,34.37
2018-08-03T09:48:28.708Z,33.93
2018-08-03T09:50:57.349Z,33.44
2018-08-03T09:53:26.022Z,33.19
2018-08-03T09:55:54.706Z,32.98
2018-08-03T09:58:23.353Z,32.94
2018-08-03T10:00:57.982Z,32.90
2018-08-03T10:03:26.613Z,32.71
2018-08-03T10:05:55.957Z,32.57
2018-08-03T10:08:26.094Z,32.53
2018-08-03T10:10:54.851Z,32.55
2018-08-03T10:13:23.832Z,32.67
2018-08-03T10:15:52.906Z,32.59
2018-08-03T10:18:22.874Z,32.62
2018-08-03T10:20:51.528Z,32.55
2018-08-03T10:23:20.202Z,32.58
2018-08-03T10:25:49.228Z,32.62
2018-08-03T10:28:18.756Z,32.59
2018-08-03T10:30:48.134Z,32.75
2018-08-03T10:33:17.061Z,32.86
2018-08-03T10:35:45.682Z,33.22
2018-08-03T10:38:15.125Z,33.70
2018-08-03T10:40:44.019Z,33.96
2018-08-03T10:43:13.111Z,34.24
2018-08-03T10:45:41.873Z,34.09
2018-08-03T10:48:10.579Z,33.89
2018-08-03T10:50:39.794Z,33.62
2018-08-03T10:53:08.936Z,33.43
2018-08-03T10:55:37.760Z,33.33
2018-08-03T10:58:06.823Z,33.31
2018-08-03T11:00:35.514Z,33.23
2018-08-03T11:03:04.537Z,33.24
2018-08-03T11:05:33.214Z,33.25
2018-08-03T11:08:01.852Z,33.10
2018-08-03T11:10:30.820Z,32.97
2018-08-03T11:12:59.755Z,32.89
2018-08-03T11:15:28.697Z,32.90
2018-08-03T11:17:57.349Z,32.82
2018-08-03T11:20:26.378Z,32.73
2018-08-03T11:22:55.014Z,32.73
2018-08-03T11:25:24.017Z,32.83
2018-08-03T11:27:52.643Z,33.22
2018-08-03T11:30:21.558Z,33.59
2018-08-03T11:32:50.746Z,34.07
2018-08-03T11:35:19.407Z,34.73
2018-08-03T11:37:48.425Z,35.30
2018-08-03T11:40:17.087Z,35.76
2018-08-03T11:42:46.314Z,35.94
2018-08-03T11:45:15.281Z,35.89
2018-08-03T11:47:43.945Z,35.77
2018-08-03T11:50:12.626Z,35.66
2018-08-03T11:52:41.312Z,35.49
2018-08-03T11:55:10.221Z,35.43
2018-08-03T11:57:38.877Z,35.36
2018-08-03T12:00:07.596Z,36.03
2018-08-03T12:02:37.411Z,37.01
2018-08-03T12:05:06.368Z,38.49
2018-08-03T12:07:35.061Z,40.52
2018-08-03T12:10:03.716Z,42.08
2018-08-03T12:12:32.400Z,43.93
2018-08-03T12:15:01.263Z,44.83
2018-08-03T12:17:30.191Z,45.89
2018-08-03T12:19:59.086Z,46.32
2018-08-03T12:22:28.765Z,46.55
2018-08-03T12:24:57.896Z,46.65
2018-08-03T12:27:26.684Z,47.40
2018-08-03T12:29:56.046Z,47.91
2018-08-03T12:32:24.767Z,47.95
2018-08-03T12:34:53.635Z,48.80
2018-08-03T12:37:22.290Z,49.41
2018-08-03T12:39:50.951Z,49.24
2018-08-03T12:42:19.573Z,49.73
2018-08-03T12:44:48.690Z,49.24
2018-08-03T12:47:17.482Z,48.68
2018-08-03T12:49:46.444Z,48.71
2018-08-03T12:52:15.184Z,49.45
2018-08-03T12:54:44.392Z,49.83
2018-08-03T12:57:13.271Z,50.54
2018-08-03T12:59:42.048Z,51.03
2018-08-03T13:02:10.649Z,50.45
2018-08-03T13:04:39.841Z,50.54
2018-08-03T13:07:08.893Z,50.40
2018-08-03T13:09:37.489Z,50.47
2018-08-03T13:12:06.202Z,50.77
2018-08-03T13:14:34.922Z,50.23
2018-08-03T13:17:03.616Z,49.78
2018-08-03T13:19:32.400Z,49.58
2018-08-03T13:22:07.613Z,49.94
2018-08-03T13:24:36.435Z,50.48
2018-08-03T13:27:05.062Z,50.62
2018-08-03T13:29:33.770Z,50.79
2018-08-03T13:32:02.627Z,50.95
2018-08-03T13:34:31.688Z,50.84
2018-08-03T13:37:00.741Z,50.99
2018-08-03T13:39:29.488Z,51.08
2018-08-03T13:41:58.503Z,50.55
2018-08-03T13:44:27.207Z,49.96
2018-08-03T13:46:55.907Z,50.68
2018-08-03T13:49:24.919Z,51.49
2018-08-03T13:51:53.546Z,51.96
2018-08-03T13:54:22.172Z,52.28
2018-08-03T13:56:50.760Z,52.12
2018-08-03T13:59:19.735Z,52.16
2018-08-03T14:02:29.216Z,51.90
2018-08-03T14:04:58.089Z,51.83
2018-08-03T14:07:27.906Z,51.71
2018-08-03T14:09:56.501Z,51.67
2018-08-03T14:12:25.696Z,51.51
2018-08-03T14:14:54.644Z,51.65
2018-08-03T14:17:23.622Z,51.66
2018-08-03T14:19:52.590Z,51.51
2018-08-03T14:22:21.238Z,51.48
2018-08-03T14:24:50.310Z,51.21
2018-08-03T14:27:18.924Z,51.01
2018-08-03T14:29:47.497Z,50.60
2018-08-03T14:32:16.423Z,50.38
2018-08-03T14:34:45.452Z,49.79
2018-08-03T14:37:14.501Z,48.98
2018-08-03T14:39:43.124Z,47.93
2018-08-03T14:42:11.886Z,46.62
2018-08-03T14:44:40.799Z,45.34
2018-08-03T14:47:09.459Z,44.60
2018-08-03T14:49:38.068Z,43.88
2018-08-03T14:52:07.026Z,43.26
2018-08-03T14:54:35.950Z,42.44
2018-08-03T14:57:04.937Z,41.94
2018-08-03T14:59:33.662Z,41.48
2018-08-03T15:02:02.367Z,40.90
2018-08-03T15:04:31.305Z,40.13
2018-08-03T15:07:00.014Z,39.37
2018-08-03T15:09:28.778Z,38.77
2018-08-03T15:11:57.522Z,38.30
2018-08-03T15:14:26.202Z,37.72
2018-08-03T15:16:55.000Z,37.35
2018-08-03T15:19:23.706Z,37.10
2018-08-03T15:21:52.659Z,36.88
2018-08-03T15:24:21.618Z,36.69
2018-08-03T15:26:50.276Z,36.51
2018-08-03T15:29:19.218Z,36.35
2018-08-03T15:31:48.143Z,36.06
2018-08-03T15:34:17.246Z,35.81
2018-08-03T15:36:45.939Z,35.76
2018-08-03T15:39:14.871Z,35.64
2018-08-03T15:41:43.879Z,35.58
2018-08-03T15:44:12.566Z,35.54
2018-08-03T15:46:41.826Z,35.47
2018-08-03T15:49:10.642Z,35.50
2018-08-03T15:51:39.277Z,35.42
2018-08-03T15:54:08.009Z,35.31
2018-08-03T15:56:37.011Z,35.12
2018-08-03T15:59:06.118Z,35.07
2018-08-03T16:01:34.943Z,35.01
2018-08-03T16:04:04.204Z,34.89
2018-08-03T16:06:33.081Z,34.84
2018-08-03T16:09:01.857Z,34.76
2018-08-03T16:11:30.488Z,34.68
2018-08-03T16:13:59.142Z,34.55
2018-08-03T16:16:27.743Z,34.30
2018-08-03T16:18:56.420Z,33.89
2018-08-03T16:21:25.350Z,33.87
2018-08-03T16:23:54.076Z,33.81
2018-08-03T16:26:22.737Z,33.73
2018-08-03T16:28:51.422Z,33.73
2018-08-03T16:31:20.085Z,33.68
2018-08-03T16:33:49.362Z,33.55
2018-08-03T16:36:18.670Z,33.47
2018-08-03T16:38:47.463Z,33.41
2018-08-03T16:41:16.381Z,33.36
2018-08-03T16:43:45.339Z,33.32
2018-08-03T16:46:14.031Z,33.27
2018-08-03T16:48:43.216Z,33.27
2018-08-03T16:51:12.232Z,33.19
2018-08-03T16:53:41.174Z,33.18
2018-08-03T16:56:09.828Z,33.15
2018-08-03T16:58:38.533Z,33.11
2018-08-03T17:01:07.317Z,33.01
2018-08-03T17:03:36.000Z,32.94
2018-08-03T17:06:04.815Z,32.87
2018-08-03T17:08:33.496Z,32.81
2018-08-03T17:11:02.649Z,32.78
2018-08-03T17:13:31.518Z,32.78
2018-08-03T17:16:00.437Z,32.72
2018-08-03T17:18:29.147Z,32.64
2018-08-03T17:20:57.784Z,32.57
2018-08-03T17:23:26.476Z,32.54
2018-08-03T17:25:55.252Z,32.48
2018-08-03T17:28:24.361Z,32.41
2018-08-03T17:30:53.060Z,32.36
2018-08-03T17:33:21.775Z,32.29
2018-08-03T17:35:50.416Z,32.24
2018-08-03T17:38:19.385Z,32.22
2018-08-03T17:40:48.436Z,32.16
2018-08-03T17:43:17.183Z,32.16
2018-08-03T17:45:45.865Z,32.14
2018-08-03T17:48:15.608Z,32.12
2018-08-03T17:50:44.285Z,32.06
2018-08-03T17:53:13.628Z,32.01
2018-08-03T17:55:42.425Z,31.97
2018-08-03T17:58:11.219Z,31.92
2018-08-03T18:00:40.063Z,31.90
2018-08-03T18:03:08.763Z,31.85
2018-08-03T18:05:37.467Z,31.78
2018-08-03T18:08:06.133Z,31.75
2018-08-03T18:10:35.122Z,31.69
2018-08-03T18:13:03.931Z,31.66
2018-08-03T18:15:32.963Z,31.63
2018-08-03T18:18:01.799Z,31.59
2018-08-03T18:20:30.776Z,31.55
2018-08-03T18:22:59.736Z,31.52
2018-08-03T18:25:28.402Z,31.48
2018-08-03T18:27:57.213Z,31.47
2018-08-03T18:30:25.968Z,31.43
2018-08-03T18:32:54.619Z,31.37
2018-08-03T18:35:23.321Z,31.33
2018-08-03T18:37:52.075Z,31.29
2018-08-03T18:40:20.816Z,31.28
2018-08-03T18:42:49.950Z,31.24
2018-08-03T18:45:18.693Z,31.24
2018-08-03T18:47:47.652Z,31.18
2018-08-03T18:50:16.275Z,31.13
2018-08-03T18:52:45.642Z,31.08
2018-08-03T18:55:14.404Z,31.04
2018-08-03T18:57:43.045Z,30.97
2018-08-03T19:00:11.798Z,30.92
2018-08-03T19:02:41.797Z,30.91
2018-08-03T19:05:10.901Z,30.85
2018-08-03T19:07:41.051Z,30.86
2018-08-03T19:10:10.083Z,30.79
2018-08-03T19:12:39.534Z,30.75
2018-08-03T19:15:09.616Z,30.71
2018-08-03T19:17:38.762Z,30.67
2018-08-03T19:20:08.614Z,30.65
2018-08-03T19:22:38.055Z,30.62
2018-08-03T19:25:07.121Z,30.60
2018-08-03T19:27:36.271Z,30.56
2018-08-03T19:30:05.136Z,30.52
2018-08-03T19:32:33.781Z,30.48
2018-08-03T19:35:02.621Z,30.43
2018-08-03T19:37:31.296Z,30.38
2018-08-03T19:40:00.455Z,30.34
2018-08-03T19:42:29.213Z,30.30
2018-08-03T19:44:58.316Z,30.25
2018-08-03T19:47:27.048Z,30.21
2018-08-03T19:49:56.099Z,30.21
2018-08-03T19:52:24.818Z,30.22
2018-08-03T19:54:53.541Z,30.13
2018-08-03T19:57:22.310Z,30.07
2018-08-03T19:59:50.978Z,30.06
2018-08-03T20:02:19.947Z,30.01
2018-08-03T20:04:48.650Z,29.99
2018-08-03T20:07:17.460Z,29.88
2018-08-03T20:09:46.157Z,29.79
2018-08-03T20:12:14.866Z,29.73
2018-08-03T20:14:43.566Z,29.68
2018-08-03T20:17:12.334Z,29.67
2018-08-03T20:19:41.065Z,29.65
2018-08-03T20:22:14.870Z,29.60
2018-08-03T20:24:43.845Z,29.57
2018-08-03T20:27:13.214Z,29.57
2018-08-03T20:29:42.078Z,29.59
2018-08-03T20:32:10.845Z,29.63
2018-08-03T20:34:39.626Z,29.65
2018-08-03T20:37:08.727Z,29.60
2018-08-03T20:39:37.849Z,29.61
2018-08-03T20:42:06.712Z,29.55
2018-08-03T20:44:35.756Z,29.52
2018-08-03T20:47:04.592Z,29.46
2018-08-03T20:49:33.338Z,29.45
2018-08-03T20:52:02.515Z,29.47
2018-08-03T20:54:31.677Z,29.48
2018-08-03T20:57:00.366Z,29.47
2018-08-03T20:59:29.170Z,29.46
2018-08-03T21:01:57.885Z,29.46
2018-08-03T21:04:26.633Z,29.43
2018-08-03T21:06:55.304Z,29.42
2018-08-03T21:09:24.052Z,29.43
2018-08-03T21:11:52.703Z,29.39
2018-08-03T21:14:21.461Z,29.33
2018-08-03T21:16:50.225Z,29.25
2018-08-03T21:19:18.938Z,29.18
2018-08-03T21:21:47.825Z,29.07
2018-08-03T21:24:16.515Z,29.05
2018-08-03T21:26:45.205Z,29.03
2018-08-03T21:29:14.107Z,29.01
2018-08-03T21:31:42.747Z,28.93
2018-08-03T21:34:11.859Z,28.88
2018-08-03T21:36:41.630Z,28.90
2018-08-03T21:39:11.867Z,28.88
2018-08-03T21:41:40.717Z,28.83
2018-08-03T21:44:09.727Z,28.77
2018-08-03T21:46:38.545Z,28.70
2018-08-03T21:49:07.485Z,28.64
2018-08-03T21:51:36.368Z,28.61
2018-08-03T21:54:05.450Z,28.52
2018-08-03T21:56:34.240Z,28.53
2018-08-03T21:59:02.996Z,28.50
2018-08-03T22:01:32.065Z,28.46
2018-08-03T22:04:01.175Z,28.43
2018-08-03T22:06:29.929Z,28.47
2018-08-03T22:08:58.860Z,28.44
2018-08-03T22:11:27.636Z,28.50
2018-08-03T22:13:56.363Z,28.51
2018-08-03T22:16:25.296Z,28.50
2018-08-03T22:18:54.067Z,28.43
2018-08-03T22:21:22.846Z,28.38
2018-08-03T22:23:51.443Z,28.38
2018-08-03T22:26:20.119Z,28.35
2018-08-03T22:28:48.809Z,28.32
2018-08-03T22:31:17.509Z,28.35
2018-08-03T22:33:46.570Z,28.36
2018-08-03T22:36:15.349Z,28.32
2018-08-03T22:38:44.024Z,28.24
2018-08-03T22:41:12.693Z,28.20
2018-08-03T22:43:41.730Z,28.17
2018-08-03T22:46:10.429Z,28.19
2018-08-03T22:48:39.097Z,28.21
2018-08-03T22:51:08.508Z,28.19
2018-08-03T22:53:37.190Z,28.17
2018-08-03T22:56:06.262Z,28.11
2018-08-03T22:58:35.396Z,28.03
2018-08-03T23:01:04.446Z,27.97
2018-08-03T23:03:33.099Z,27.92
2018-08-03T23:06:01.956Z,27.81
2018-08-03T23:08:30.651Z,27.75
2018-08-03T23:10:59.269Z,27.70
2018-08-03T23:13:28.287Z,27.64
2018-08-03T23:15:57.115Z,27.50
2018-08-03T23:18:25.758Z,27.44
2018-08-03T23:20:54.473Z,27.36
2018-08-03T23:23:24.080Z,27.36
2018-08-03T23:25:52.755Z,27.32
2018-08-03T23:28:21.401Z,27.29
2018-08-03T23:30:50.108Z,27.24
2018-08-03T23:33:18.795Z,27.18
2018-08-03T23:35:47.672Z,27.16
2018-08-03T23:38:16.320Z,27.15
2018-08-03T23:40:45.202Z,27.11
2018-08-03T23:43:13.842Z,27.09
2018-08-03T23:45:42.448Z,27.02
2018-08-03T23:48:11.694Z,27.01
2018-08-03T23:50:40.314Z,26.99
2018-08-03T23:53:08.953Z,26.98
2018-08-03T23:55:37.598Z,26.94
2018-08-03T23:58:06.667Z,26.90
